Time;durP1;ratioP1;P1;durP2;ratioP2;P2;SDS_P1;SDS_P2;PMS_P1;PMS_P2;Temp;Humidity;BMP_temperature;BMP_pressure;BME280_temperature;BME280_humidity;BME280_pressure;Samples;Min_cycle;Max_cycle;Signal;HPM_P1;HPM_P2
2021/11/28 00:00:21;;;;;;;;;;;6.50;99.00;;;;;;5056495;28;19909;-78
2021/11/28 00:02:46;;;;;;;;;;;6.40;98.80;;;;;;5055198;28;20439;-78
2021/11/28 00:05:14;;;;;;;;;;;6.40;98.80;;;;;;5055151;28;19981;-78
2021/11/28 00:10:39;;;;;;;;;;;6.40;98.70;;;;;;5056291;28;19983;-78
2021/11/28 00:13:12;;;;;;;;;;;6.30;98.80;;;;;;5056165;28;19958;-78
2021/11/28 00:15:38;;;;;;;;;;;6.30;98.90;;;;;;5054698;28;20344;-79
2021/11/28 00:18:04;;;;;;;;;;;6.30;98.70;;;;;;5056155;28;19913;-78
2021/11/28 00:20:29;;;;;;;;;;;6.20;98.50;;;;;;5056200;28;19909;-78
2021/11/28 00:22:55;;;;;;;;;;;6.20;98.90;;;;;;5056566;28;19916;-79
2021/11/28 00:25:21;;;;;;;;;;;6.10;99.10;;;;;;5056257;28;20361;-79
2021/11/28 00:27:48;;;;;;;;;;;6.00;99.10;;;;;;5056111;28;19908;-79
2021/11/28 00:30:18;;;;;;;;;;;6.10;99.00;;;;;;5056000;28;19909;-78
2021/11/28 00:32:44;;;;;;;;;;;6.00;99.20;;;;;;5056367;28;19909;-79
2021/11/28 00:35:09;;;;;;;;;;;6.00;99.10;;;;;;5056281;28;19916;-79
2021/11/28 00:37:35;;;;;;;;;;;6.10;99.10;;;;;;5056060;28;19972;-78
2021/11/28 00:40:00;;;;;;;;;;;6.10;98.80;;;;;;5055706;28;19909;-78
2021/11/28 00:42:26;;;;;;;;;;;6.10;99.10;;;;;;5054425;28;19909;-79
2021/11/28 00:44:52;;;;;;;;;;;6.10;99.20;;;;;;5055668;28;19912;-78
2021/11/28 00:47:19;;;;;;;;;;;6.10;99.10;;;;;;5056018;28;19908;-79
2021/11/28 00:52:29;;;;;;;;;;;6.00;99.20;;;;;;5055616;28;20406;-78
2021/11/28 00:54:55;;;;;;;;;;;6.00;99.50;;;;;;5055533;28;19963;-78
2021/11/28 00:57:23;;;;;;;;;;;6.10;99.60;;;;;;5055412;28;19963;-79
2021/11/28 00:59:49;;;;;;;;;;;6.00;99.80;;;;;;5055415;28;19909;-78
2021/11/28 01:02:16;;;;;;;;;;;6.00;99.90;;;;;;5054541;28;19912;-79
2021/11/28 01:04:42;;;;;;;;;;;6.10;99.60;;;;;;5055276;28;19909;-79
2021/11/28 01:07:07;;;;;;;;;;;6.10;99.90;;;;;;5055433;28;19909;-79
2021/11/28 01:09:33;;;;;;;;;;;6.10;99.90;;;;;;5054878;28;20393;-78
2021/11/28 01:11:58;;;;;;;;;;;6.10;99.90;;;;;;5053875;28;20004;-78
2021/11/28 01:14:24;;;;;;;;;;;6.10;99.90;;;;;;5055171;28;19913;-78
2021/11/28 01:16:50;;;;;;;;;;;6.00;99.90;;;;;;5055114;28;19909;-78
2021/11/28 01:19:16;;;;;;;;;;;5.90;99.90;;;;;;5054996;28;20396;-78
2021/11/28 01:21:53;;;;;;;;;;;6.00;99.90;;;;;;5055027;28;19909;-78
2021/11/28 01:24:18;;;;;;;;;;;6.10;99.90;;;;;;5055054;28;19909;-78
2021/11/28 01:26:44;;;;;;;;;;;6.10;99.90;;;;;;5055128;28;20011;-79
2021/11/28 01:29:10;;;;;;;;;;;6.20;99.90;;;;;;5054851;28;19916;-78
2021/11/28 01:31:35;;;;;;;;;;;6.10;99.90;;;;;;5054983;28;19913;-79
2021/11/28 01:34:01;;;;;;;;;;;6.10;99.90;;;;;;5053351;28;20377;-78
2021/11/28 01:36:27;;;;;;;;;;;6.10;99.90;;;;;;5054766;28;19909;-78
2021/11/28 01:38:52;;;;;;;;;;;6.20;99.90;;;;;;5054498;28;19913;-79
2021/11/28 01:41:18;;;;;;;;;;;6.20;99.90;;;;;;5054917;28;19963;-78
2021/11/28 01:43:44;;;;;;;;;;;6.20;99.90;;;;;;5054633;28;19908;-78
2021/11/28 01:46:09;;;;;;;;;;;6.20;99.90;;;;;;5054575;28;20011;-78
2021/11/28 01:48:35;;;;;;;;;;;6.20;99.90;;;;;;5054453;28;20000;-79
2021/11/28 01:51:02;;;;;;;;;;;6.20;99.90;;;;;;5054810;28;19909;-79
2021/11/28 01:53:28;;;;;;;;;;;6.10;99.90;;;;;;5054396;28;19952;-78
2021/11/28 01:55:54;;;;;;;;;;;6.00;99.90;;;;;;5054300;28;20385;-78
2021/11/28 01:58:20;;;;;;;;;;;6.00;99.90;;;;;;5054177;28;20392;-78
2021/11/28 02:00:48;;;;;;;;;;;6.00;99.90;;;;;;5053000;28;19909;-78
2021/11/28 02:03:15;;;;;;;;;;;6.00;99.90;;;;;;5052953;28;19923;-79
2021/11/28 02:05:42;;;;;;;;;;;5.80;99.90;;;;;;5054176;28;19915;-79
2021/11/28 02:08:08;;;;;;;;;;;5.80;99.90;;;;;;5054175;28;19908;-80
2021/11/28 02:10:34;;;;;;;;;;;5.80;99.90;;;;;;5053655;28;19927;-79
2021/11/28 02:12:59;;;;;;;;;;;5.80;99.90;;;;;;5054042;28;20327;-79
2021/11/28 02:15:25;;;;;;;;;;;5.90;99.90;;;;;;5054164;28;19937;-78
2021/11/28 02:17:52;;;;;;;;;;;5.80;99.90;;;;;;5053926;28;19939;-78
2021/11/28 02:20:21;;;;;;;;;;;5.90;99.90;;;;;;5053915;28;19916;-79
2021/11/28 02:22:46;;;;;;;;;;;5.90;99.90;;;;;;5053925;28;19909;-79
2021/11/28 02:25:12;;;;;;;;;;;5.80;99.90;;;;;;5052547;28;20378;-79
2021/11/28 02:27:38;;;;;;;;;;;5.80;99.90;;;;;;5052553;28;19909;-79
2021/11/28 02:30:05;;;;;;;;;;;5.80;99.90;;;;;;5053989;28;19909;-78
2021/11/28 02:32:30;;;;;;;;;;;5.80;99.50;;;;;;5053698;28;20034;-79
2021/11/28 02:34:56;;;;;;;;;;;5.80;99.10;;;;;;5053714;28;19947;-79
2021/11/28 02:37:22;;;;;;;;;;;5.70;99.20;;;;;;5053641;28;19916;-79
2021/11/28 02:39:48;;;;;;;;;;;5.60;99.10;;;;;;5052314;28;19916;-78
2021/11/28 02:42:16;;;;;;;;;;;5.60;98.70;;;;;;5053846;28;19908;-78
2021/11/28 02:44:42;;;;;;;;;;;5.60;98.70;;;;;;5053785;28;19916;-79
2021/11/28 02:47:08;;;;;;;;;;;5.70;98.40;;;;;;5053592;28;19909;-78
2021/11/28 02:49:33;;;;;;;;;;;5.70;98.50;;;;;;5052243;28;19909;-79
2021/11/28 02:51:59;;;;;;;;;;;5.70;98.00;;;;;;5053495;28;19955;-78
2021/11/28 02:54:24;;;;;;;;;;;5.70;97.60;;;;;;5053507;28;20354;-78
2021/11/28 02:56:50;;;;;;;;;;;5.70;97.90;;;;;;5052185;28;19916;-79
2021/11/28 02:59:16;;;;;;;;;;;5.70;97.70;;;;;;5053380;28;19966;-79
2021/11/28 03:01:41;;;;;;;;;;;5.50;97.90;;;;;;5052180;28;20004;-79
2021/11/28 03:04:07;;;;;;;;;;;5.50;97.90;;;;;;5053422;28;19936;-79
2021/11/28 03:06:32;;;;;;;;;;;5.50;98.10;;;;;;5053426;28;20373;-78
2021/11/28 03:08:58;;;;;;;;;;;5.50;98.40;;;;;;5053625;28;20448;-79
2021/11/28 03:11:24;;;;;;;;;;;5.50;98.40;;;;;;5053121;28;19974;-78
2021/11/28 03:13:51;;;;;;;;;;;5.60;98.50;;;;;;5053381;28;19958;-79
2021/11/28 03:16:20;;;;;;;;;;;5.60;98.50;;;;;;5053329;28;19916;-79
2021/11/28 03:18:47;;;;;;;;;;;5.70;98.50;;;;;;5053463;28;19913;-79
2021/11/28 03:21:17;;;;;;;;;;;5.80;98.70;;;;;;5053288;28;20400;-78
2021/11/28 03:23:44;;;;;;;;;;;5.70;98.70;;;;;;5053549;28;19916;-78
2021/11/28 03:26:12;;;;;;;;;;;5.70;98.70;;;;;;5056692;28;19999;-78
2021/11/28 03:28:40;;;;;;;;;;;5.70;98.90;;;;;;5057183;28;20280;-79
2021/11/28 03:31:06;;;;;;;;;;;5.70;99.00;;;;;;5057081;28;20369;-78
2021/11/28 03:33:31;;;;;;;;;;;5.80;98.50;;;;;;5057417;28;19909;-78
2021/11/28 03:35:57;;;;;;;;;;;5.80;98.40;;;;;;5057154;28;19913;-78
2021/11/28 03:38:23;;;;;;;;;;;5.80;98.30;;;;;;5055562;28;19913;-78
2021/11/28 03:40:49;;;;;;;;;;;5.80;98.70;;;;;;5056826;28;19958;-78
2021/11/28 03:43:14;;;;;;;;;;;5.80;98.70;;;;;;5056832;28;20302;-78
2021/11/28 03:45:40;;;;;;;;;;;5.90;98.30;;;;;;5056860;28;19936;-79
2021/11/28 03:48:06;;;;;;;;;;;5.80;98.30;;;;;;5055523;28;19909;-78
2021/11/28 03:50:31;;;;;;;;;;;5.70;98.20;;;;;;5056774;28;19995;-78
2021/11/28 03:52:57;;;;;;;;;;;5.70;98.60;;;;;;5056742;28;20008;-78
2021/11/28 03:55:24;;;;;;;;;;;5.70;98.70;;;;;;5056682;28;19916;-78
2021/11/28 03:57:50;;;;;;;;;;;5.70;98.50;;;;;;5055266;28;19936;-79
2021/11/28 04:00:15;;;;;;;;;;;5.80;98.60;;;;;;5056706;28;20364;-79
2021/11/28 04:02:41;;;;;;;;;;;5.70;98.40;;;;;;5055320;28;19963;-78
2021/11/28 04:05:07;;;;;;;;;;;5.60;98.90;;;;;;5056480;28;19912;-79
2021/11/28 04:07:33;;;;;;;;;;;5.60;98.80;;;;;;5055131;28;20000;-78
2021/11/28 04:09:59;;;;;;;;;;;5.60;99.10;;;;;;5056196;28;19959;-79
2021/11/28 04:12:24;;;;;;;;;;;5.70;98.80;;;;;;5056470;28;19913;-78
2021/11/28 04:14:50;;;;;;;;;;;5.70;98.80;;;;;;5056298;28;20479;-79
2021/11/28 04:17:15;;;;;;;;;;;5.80;99.20;;;;;;5056217;28;19909;-78
2021/11/28 04:19:41;;;;;;;;;;;5.90;99.90;;;;;;5056214;28;20361;-78
2021/11/28 04:22:07;;;;;;;;;;;5.90;99.90;;;;;;5054858;28;19931;-79
2021/11/28 04:24:32;;;;;;;;;;;5.80;99.90;;;;;;5056184;28;19909;-79
2021/11/28 04:26:58;;;;;;;;;;;5.80;99.90;;;;;;5056074;28;19992;-79
2021/11/28 04:29:24;;;;;;;;;;;5.80;99.90;;;;;;5055995;28;20258;-78
2021/11/28 04:31:49;;;;;;;;;;;5.80;99.90;;;;;;5055959;28;19967;-79
2021/11/28 04:34:15;;;;;;;;;;;5.80;99.90;;;;;;5056085;28;19920;-79
2021/11/28 04:36:41;;;;;;;;;;;5.90;99.60;;;;;;5053336;28;19909;-78
2021/11/28 04:39:06;;;;;;;;;;;6.00;99.70;;;;;;5056111;28;20050;-78
2021/11/28 04:41:32;;;;;;;;;;;6.00;99.90;;;;;;5055990;28;19908;-79
2021/11/28 04:43:58;;;;;;;;;;;6.00;99.70;;;;;;5055856;28;19909;-78
2021/11/28 04:46:23;;;;;;;;;;;6.00;99.60;;;;;;5055730;28;20307;-78
2021/11/28 04:48:49;;;;;;;;;;;6.00;99.50;;;;;;5055643;28;19909;-78
2021/11/28 04:51:15;;;;;;;;;;;5.90;99.30;;;;;;5055871;28;19913;-78
2021/11/28 04:53:40;;;;;;;;;;;5.80;99.10;;;;;;5055556;28;20323;-79
2021/11/28 04:56:06;;;;;;;;;;;5.80;98.90;;;;;;5054248;28;20425;-78
2021/11/28 04:58:31;;;;;;;;;;;5.70;99.00;;;;;;5055934;28;20008;-78
2021/11/28 05:00:57;;;;;;;;;;;5.80;99.10;;;;;;5055877;28;19935;-78
2021/11/28 05:03:23;;;;;;;;;;;5.70;99.00;;;;;;5055673;28;19909;-79
2021/11/28 05:05:48;;;;;;;;;;;5.60;98.90;;;;;;5055534;28;19955;-79
2021/11/28 05:08:14;;;;;;;;;;;5.60;98.90;;;;;;5055346;28;19931;-79
2021/11/28 05:10:39;;;;;;;;;;;5.60;98.90;;;;;;5055052;28;19927;-79
2021/11/28 05:13:05;;;;;;;;;;;5.70;98.90;;;;;;5053951;28;19919;-78
2021/11/28 05:15:30;;;;;;;;;;;5.80;99.00;;;;;;5053879;28;20394;-78
2021/11/28 05:17:56;;;;;;;;;;;5.90;98.80;;;;;;5055294;28;19917;-78
2021/11/28 05:20:22;;;;;;;;;;;5.90;99.00;;;;;;5055113;28;19938;-78
2021/11/28 05:22:47;;;;;;;;;;;5.80;99.20;;;;;;5054984;28;19999;-78
2021/11/28 05:25:13;;;;;;;;;;;5.80;99.40;;;;;;5055348;28;20004;-78
2021/11/28 05:27:38;;;;;;;;;;;5.80;99.50;;;;;;5055068;28;19916;-79
2021/11/28 05:30:05;;;;;;;;;;;5.80;99.20;;;;;;5054866;28;19916;-79
2021/11/28 05:32:31;;;;;;;;;;;5.80;98.90;;;;;;5054802;28;19913;-79
2021/11/28 05:34:56;;;;;;;;;;;5.80;99.00;;;;;;5054771;28;19915;-79
2021/11/28 05:37:22;;;;;;;;;;;5.80;98.80;;;;;;5054969;28;19913;-78
2021/11/28 05:39:48;;;;;;;;;;;5.70;98.80;;;;;;5054612;28;19959;-78
2021/11/28 05:42:13;;;;;;;;;;;5.80;98.80;;;;;;5054625;28;19935;-78
2021/11/28 05:44:39;;;;;;;;;;;5.70;99.00;;;;;;5054604;28;19992;-79
2021/11/28 05:47:05;;;;;;;;;;;5.70;99.40;;;;;;5054392;28;19913;-80
2021/11/28 05:49:31;;;;;;;;;;;5.60;99.50;;;;;;5054502;28;20336;-78
2021/11/28 05:51:56;;;;;;;;;;;5.60;99.50;;;;;;5054426;28;19909;-79
2021/11/28 05:54:22;;;;;;;;;;;5.50;99.40;;;;;;5054411;28;19920;-78
2021/11/28 05:56:48;;;;;;;;;;;5.40;99.40;;;;;;5053084;28;19909;-79
2021/11/28 05:59:13;;;;;;;;;;;5.40;99.20;;;;;;5054325;28;19920;-78
2021/11/28 06:01:39;;;;;;;;;;;5.40;99.20;;;;;;5054339;28;19908;-78
2021/11/28 06:04:04;;;;;;;;;;;5.40;99.30;;;;;;5054297;28;19912;-78
2021/11/28 06:06:30;;;;;;;;;;;5.30;99.10;;;;;;5052929;28;20278;-78
2021/11/28 06:08:56;;;;;;;;;;;5.30;99.20;;;;;;5052884;28;19908;-78
2021/11/28 06:11:21;;;;;;;;;;;5.20;99.50;;;;;;5053770;28;19925;-78
2021/11/28 06:13:47;;;;;;;;;;;5.10;99.50;;;;;;5054150;28;20249;-79
2021/11/28 06:16:13;;;;;;;;;;;5.10;99.50;;;;;;5054028;28;19978;-79
2021/11/28 06:18:38;;;;;;;;;;;5.10;99.80;;;;;;5052629;28;19912;-78
2021/11/28 06:21:04;;;;;;;;;;;5.10;99.60;;;;;;5054296;28;20431;-79
2021/11/28 06:23:29;;;;;;;;;;;5.10;99.60;;;;;;5054191;28;19908;-79
2021/11/28 06:25:55;;;;;;;;;;;5.00;99.70;;;;;;5054011;28;19912;-79
2021/11/28 06:28:21;;;;;;;;;;;5.20;99.70;;;;;;5052548;28;19949;-78
2021/11/28 06:30:46;;;;;;;;;;;5.20;99.60;;;;;;5053802;28;20373;-79
2021/11/28 06:33:12;;;;;;;;;;;5.10;99.60;;;;;;5053941;28;19992;-79
2021/11/28 06:35:37;;;;;;;;;;;5.10;99.80;;;;;;5053759;28;19909;-79
2021/11/28 06:38:03;;;;;;;;;;;5.10;99.80;;;;;;5052359;28;19913;-78
2021/11/28 06:40:29;;;;;;;;;;;5.10;99.90;;;;;;5053619;28;20000;-78
2021/11/28 06:42:54;;;;;;;;;;;5.10;99.70;;;;;;5053677;28;19917;-79
2021/11/28 06:45:20;;;;;;;;;;;5.10;99.90;;;;;;5052337;28;20277;-79
2021/11/28 06:47:46;;;;;;;;;;;5.20;99.90;;;;;;5053617;28;19909;-79
2021/11/28 06:50:12;;;;;;;;;;;5.30;99.60;;;;;;5052310;28;19909;-79
2021/11/28 06:52:38;;;;;;;;;;;5.20;99.70;;;;;;5053558;28;19909;-78
2021/11/28 06:55:04;;;;;;;;;;;5.20;99.70;;;;;;5053489;28;19908;-79
2021/11/28 06:57:29;;;;;;;;;;;5.10;99.90;;;;;;5053444;28;19912;-78
2021/11/28 06:59:55;;;;;;;;;;;5.00;99.90;;;;;;5053799;28;19963;-79
2021/11/28 07:02:21;;;;;;;;;;;5.00;99.90;;;;;;5056368;28;20381;-79
2021/11/28 07:04:46;;;;;;;;;;;4.90;99.90;;;;;;5056292;28;19916;-79
2021/11/28 07:07:12;;;;;;;;;;;4.90;99.90;;;;;;5057530;28;19915;-78
2021/11/28 07:09:37;;;;;;;;;;;5.00;99.90;;;;;;5057669;28;19921;-79
2021/11/28 07:12:03;;;;;;;;;;;5.00;99.90;;;;;;5057614;28;20321;-78
2021/11/28 07:14:29;;;;;;;;;;;4.80;99.90;;;;;;5057393;28;19909;-79
2021/11/28 07:16:55;;;;;;;;;;;4.80;99.90;;;;;;5057677;28;20000;-79
2021/11/28 07:19:20;;;;;;;;;;;4.90;99.90;;;;;;5057272;28;19913;-79
2021/11/28 07:21:46;;;;;;;;;;;4.90;99.90;;;;;;5057269;28;20255;-78
2021/11/28 07:24:12;;;;;;;;;;;4.90;99.90;;;;;;5057225;28;19916;-80
2021/11/28 07:26:37;;;;;;;;;;;4.80;99.90;;;;;;5057178;28;20266;-79
2021/11/28 07:29:03;;;;;;;;;;;4.80;99.90;;;;;;5057225;28;20385;-78
2021/11/28 07:31:29;;;;;;;;;;;4.80;99.90;;;;;;5055751;28;19913;-78
2021/11/28 07:33:54;;;;;;;;;;;4.80;99.90;;;;;;5057191;28;19916;-78
2021/11/28 07:36:20;;;;;;;;;;;4.80;99.90;;;;;;5057163;28;20000;-79
2021/11/28 07:38:46;;;;;;;;;;;4.90;99.90;;;;;;5056880;28;20332;-79
2021/11/28 07:41:11;;;;;;;;;;;5.00;99.90;;;;;;5056963;28;20419;-78
2021/11/28 07:43:37;;;;;;;;;;;5.00;99.90;;;;;;5056872;28;19909;-79
2021/11/28 07:46:03;;;;;;;;;;;5.00;99.90;;;;;;5057037;28;19955;-79
2021/11/28 07:48:28;;;;;;;;;;;5.10;99.90;;;;;;5055589;28;19909;-79
2021/11/28 07:50:54;;;;;;;;;;;5.20;99.90;;;;;;5056816;28;19959;-79
2021/11/28 07:53:20;;;;;;;;;;;5.20;99.90;;;;;;5055466;28;20388;-79
2021/11/28 07:55:45;;;;;;;;;;;5.50;99.90;;;;;;5056923;28;19909;-78
2021/11/28 07:58:11;;;;;;;;;;;5.60;99.70;;;;;;5056546;28;19913;-79
2021/11/28 08:00:37;;;;;;;;;;;5.60;99.70;;;;;;5055302;28;19916;-78
2021/11/28 08:03:03;;;;;;;;;;;5.70;99.20;;;;;;5056860;28;19995;-79
2021/11/28 08:05:30;;;;;;;;;;;5.90;99.40;;;;;;5056490;28;19912;-78
2021/11/28 08:07:56;;;;;;;;;;;5.90;98.90;;;;;;5056605;28;19912;-79
2021/11/28 08:10:21;;;;;;;;;;;6.00;98.60;;;;;;5056007;28;20417;-79
2021/11/28 08:12:47;;;;;;;;;;;6.00;99.20;;;;;;5056282;28;19999;-79
2021/11/28 08:15:18;;;;;;;;;;;6.20;98.60;;;;;;5056305;28;20338;-79
2021/11/28 08:17:44;;;;;;;;;;;6.30;98.30;;;;;;5056482;28;19913;-78
2021/11/28 08:20:10;;;;;;;;;;;6.50;97.80;;;;;;5056212;28;19916;-79
2021/11/28 08:22:36;;;;;;;;;;;6.50;96.40;;;;;;5056214;28;19912;-79
2021/11/28 08:25:01;;;;;;;;;;;6.70;96.00;;;;;;5056105;28;19908;-79
2021/11/28 08:27:27;;;;;;;;;;;7.70;95.90;;;;;;5056087;28;19913;-79
2021/11/28 08:29:53;;;;;;;;;;;8.30;93.90;;;;;;5056052;28;20281;-79
2021/11/28 08:32:19;;;;;;;;;;;8.80;93.60;;;;;;5055981;28;20445;-79
2021/11/28 08:34:44;;;;;;;;;;;8.50;93.50;;;;;;5054637;28;19913;-80
2021/11/28 08:37:10;;;;;;;;;;;8.50;93.40;;;;;;5055865;28;19909;-78
2021/11/28 08:39:36;;;;;;;;;;;8.60;92.80;;;;;;5055703;28;19913;-78
2021/11/28 08:42:04;;;;;;;;;;;8.60;92.30;;;;;;5055824;28;20288;-79
2021/11/28 08:44:30;;;;;;;;;;;8.40;92.50;;;;;;5055904;28;19908;-78
2021/11/28 08:46:55;;;;;;;;;;;8.50;92.70;;;;;;5055701;28;19913;-79
2021/11/28 08:49:21;;;;;;;;;;;8.40;92.50;;;;;;5055650;28;19978;-78
2021/11/28 08:51:47;;;;;;;;;;;8.10;93.30;;;;;;5054420;28;19909;-79
2021/11/28 08:54:13;;;;;;;;;;;8.10;94.10;;;;;;5055880;28;19958;-79
2021/11/28 08:56:40;;;;;;;;;;;8.20;93.50;;;;;;5054237;28;19917;-78
2021/11/28 08:59:06;;;;;;;;;;;8.30;93.10;;;;;;5055240;28;19923;-78
2021/11/28 09:01:31;;;;;;;;;;;8.50;92.60;;;;;;5055409;28;19995;-79
2021/11/28 09:03:58;;;;;;;;;;;8.70;92.60;;;;;;5055380;28;19909;-79
2021/11/28 09:06:23;;;;;;;;;;;8.70;92.20;;;;;;5055544;28;19913;-79
2021/11/28 09:08:49;;;;;;;;;;;8.90;91.10;;;;;;5055350;28;19932;-80
2021/11/28 09:11:15;;;;;;;;;;;9.10;91.00;;;;;;5054914;28;20023;-80
2021/11/28 09:13:41;;;;;;;;;;;9.40;90.80;;;;;;5055573;28;20062;-79
2021/11/28 09:16:10;;;;;;;;;;;9.50;90.30;;;;;;5055325;28;20389;-80
2021/11/28 09:18:43;;;;;;;;;;;9.50;89.90;;;;;;5055211;28;20331;-80
2021/11/28 09:21:11;;;;;;;;;;;9.20;88.90;;;;;;5055070;28;20320;-79
2021/11/28 09:26:21;;;;;;;;;;;8.50;88.30;;;;;;5054977;28;19924;-79
2021/11/28 09:28:46;;;;;;;;;;;8.70;88.70;;;;;;5054912;28;20319;-79
2021/11/28 09:31:12;;;;;;;;;;;8.90;87.20;;;;;;5055176;28;19915;-79
2021/11/28 09:33:38;;;;;;;;;;;9.70;86.60;;;;;;5053522;28;20277;-79
2021/11/28 09:36:04;;;;;;;;;;;9.30;86.30;;;;;;5054714;28;20289;-80
2021/11/28 09:38:31;;;;;;;;;;;9.60;85.60;;;;;;5053388;28;19913;-79
2021/11/28 09:40:57;;;;;;;;;;;9.80;85.10;;;;;;5054779;28;19908;-79
2021/11/28 09:43:24;;;;;;;;;;;9.70;85.60;;;;;;5054632;28;19913;-79
2021/11/28 09:45:52;;;;;;;;;;;9.80;85.50;;;;;;5055029;28;19909;-79
2021/11/28 09:48:19;;;;;;;;;;;9.90;85.20;;;;;;5054572;28;19909;-79
2021/11/28 09:50:44;;;;;;;;;;;10.00;84.30;;;;;;5054539;28;19916;-79
2021/11/28 09:53:12;;;;;;;;;;;10.10;82.20;;;;;;5054493;28;19909;-80
2021/11/28 09:55:38;;;;;;;;;;;10.80;83.80;;;;;;5053121;28;19909;-79
2021/11/28 09:58:04;;;;;;;;;;;11.00;82.50;;;;;;5054274;28;19924;-80
2021/11/28 10:00:31;;;;;;;;;;;11.40;81.10;;;;;;5054349;28;19909;-79
2021/11/28 10:02:57;;;;;;;;;;;11.70;80.90;;;;;;5054288;28;20365;-79
2021/11/28 10:05:22;;;;;;;;;;;11.80;78.30;;;;;;5054247;28;20007;-78
2021/11/28 10:07:48;;;;;;;;;;;11.60;79.20;;;;;;5054433;28;19913;-78
2021/11/28 10:10:16;;;;;;;;;;;11.30;79.40;;;;;;5053906;28;20396;-79
2021/11/28 10:12:43;;;;;;;;;;;11.20;79.70;;;;;;5052786;28;19909;-79
2021/11/28 10:15:11;;;;;;;;;;;11.00;80.10;;;;;;5054115;28;20313;-79
2021/11/28 10:17:37;;;;;;;;;;;10.80;78.40;;;;;;5053980;28;20324;-79
2021/11/28 10:20:05;;;;;;;;;;;10.70;78.80;;;;;;5052740;28;19909;-79
2021/11/28 10:22:31;;;;;;;;;;;10.50;78.10;;;;;;5053937;28;19955;-79
2021/11/28 10:25:02;;;;;;;;;;;10.50;77.90;;;;;;5053855;28;19908;-80
2021/11/28 10:27:32;;;;;;;;;;;10.50;78.10;;;;;;5054096;28;19909;-79
2021/11/28 10:29:58;;;;;;;;;;;10.40;76.20;;;;;;5052585;28;19912;-79
2021/11/28 10:32:24;;;;;;;;;;;10.50;78.30;;;;;;5052551;28;19915;-79
2021/11/28 10:34:50;;;;;;;;;;;10.40;77.40;;;;;;5053821;28;19909;-79
2021/11/28 10:37:17;;;;;;;;;;;10.30;78.10;;;;;;5053966;28;19913;-79
2021/11/28 10:39:54;;;;;;;;;;;10.60;78.30;;;;;;5053824;28;19920;-79
2021/11/28 10:42:25;;;;;;;;;;;11.00;76.40;;;;;;5053933;28;19916;-80
2021/11/28 10:45:10;;;;;;;;;;;11.30;76.40;;;;;;5053793;28;19932;-79
2021/11/28 10:47:46;;;;;;;;;;;11.70;74.40;;;;;;5053611;28;19920;-79
2021/11/28 10:50:11;;;;;;;;;;;11.80;74.30;;;;;;5053872;28;19967;-80
2021/11/28 10:52:37;;;;;;;;;;;12.00;72.40;;;;;;5053543;28;19913;-79
2021/11/28 10:55:10;;;;;;;;;;;12.50;71.70;;;;;;5053539;28;19913;-79
2021/11/28 10:57:35;;;;;;;;;;;13.00;70.00;;;;;;5053406;28;19919;-79
2021/11/28 11:00:01;;;;;;;;;;;13.10;68.60;;;;;;5053487;28;19909;-80
2021/11/28 11:02:28;;;;;;;;;;;13.30;68.50;;;;;;5053553;28;19967;-79
2021/11/28 11:04:56;;;;;;;;;;;13.30;68.20;;;;;;5053485;28;19932;-80
2021/11/28 11:07:22;;;;;;;;;;;13.50;67.90;;;;;;5053432;28;19948;-79
2021/11/28 11:09:48;;;;;;;;;;;14.00;66.70;;;;;;5053219;28;20385;-79
2021/11/28 11:12:35;;;;;;;;;;;14.30;65.10;;;;;;5053426;28;19932;-79
2021/11/28 11:15:00;;;;;;;;;;;14.90;65.30;;;;;;5051829;28;19909;-79
2021/11/28 11:17:27;;;;;;;;;;;15.20;61.90;;;;;;5053693;28;19935;-79
2021/11/28 11:19:54;;;;;;;;;;;14.60;62.80;;;;;;5052108;28;19915;-79
2021/11/28 11:22:22;;;;;;;;;;;15.80;62.10;;;;;;5053366;28;19909;-79
2021/11/28 11:25:17;;;;;;;;;;;16.60;58.60;;;;;;5053279;28;19991;-79
2021/11/28 11:27:48;;;;;;;;;;;16.10;59.50;;;;;;5053271;28;19936;-79
2021/11/28 11:30:13;;;;;;;;;;;16.70;57.40;;;;;;5053336;28;19909;-80
2021/11/28 11:32:44;;;;;;;;;;;17.70;58.00;;;;;;5053229;28;19916;-80
2021/11/28 11:35:23;;;;;;;;;;;19.40;53.90;;;;;;5051848;28;20262;-79
2021/11/28 11:37:50;;;;;;;;;;;20.20;50.80;;;;;;5053098;28;19913;-79
2021/11/28 11:40:16;;;;;;;;;;;20.20;49.00;;;;;;5053030;28;19917;-80
2021/11/28 11:42:43;;;;;;;;;;;20.30;49.40;;;;;;5051815;28;19909;-79
2021/11/28 11:45:10;;;;;;;;;;;20.30;50.30;;;;;;5053725;28;20430;-80
2021/11/28 11:47:36;;;;;;;;;;;21.20;49.00;;;;;;5057231;28;19999;-80
2021/11/28 11:50:02;;;;;;;;;;;22.00;47.60;;;;;;5056804;28;19916;-80
2021/11/28 11:52:28;;;;;;;;;;;22.00;47.20;;;;;;5056963;28;19909;-80
2021/11/28 11:54:55;;;;;;;;;;;22.80;47.60;;;;;;5056754;28;20319;-80
2021/11/28 11:57:26;;;;;;;;;;;23.70;46.60;;;;;;5056582;28;19909;-80
2021/11/28 12:00:01;;;;;;;;;;;23.40;44.80;;;;;;5056607;28;19999;-80
2021/11/28 12:02:28;;;;;;;;;;;23.10;44.50;;;;;;5056649;28;19915;-80
2021/11/28 12:04:53;;;;;;;;;;;23.60;44.10;;;;;;5056607;28;19909;-80
2021/11/28 12:07:39;;;;;;;;;;;23.80;43.70;;;;;;5056475;28;19916;-80
2021/11/28 12:10:23;;;;;;;;;;;23.40;43.90;;;;;;5056260;28;19920;-80
2021/11/28 12:12:49;;;;;;;;;;;23.40;43.60;;;;;;5056414;28;19940;-80
2021/11/28 12:15:15;;;;;;;;;;;22.70;45.40;;;;;;5056299;28;19952;-80
2021/11/28 12:17:42;;;;;;;;;;;22.40;44.40;;;;;;5056186;28;19913;-79
2021/11/28 12:20:08;;;;;;;;;;;21.80;45.20;;;;;;5056259;28;19999;-79
2021/11/28 12:22:38;;;;;;;;;;;20.50;45.90;;;;;;5056209;28;19955;-79
2021/11/28 12:25:22;;;;;;;;;;;19.40;48.60;;;;;;5056155;28;20003;-80
2021/11/28 12:27:49;;;;;;;;;;;19.80;48.00;;;;;;5056140;28;19909;-79
2021/11/28 12:30:31;;;;;;;;;;;19.40;49.40;;;;;;5054792;28;19967;-79
2021/11/28 12:32:57;;;;;;;;;;;19.10;49.10;;;;;;5055978;28;19916;-79
2021/11/28 12:35:36;;;;;;;;;;;18.00;52.00;;;;;;5056209;28;20361;-80
2021/11/28 12:38:02;;;;;;;;;;;17.60;51.60;;;;;;5055973;28;19913;-79
2021/11/28 12:40:30;;;;;;;;;;;17.70;52.70;;;;;;5055781;28;20423;-79
2021/11/28 12:42:56;;;;;;;;;;;18.10;52.60;;;;;;5056227;28;20416;-79
2021/11/28 12:45:26;;;;;;;;;;;18.10;50.90;;;;;;5055795;28;19917;-79
2021/11/28 12:48:04;;;;;;;;;;;16.90;52.70;;;;;;5055700;28;20285;-79
2021/11/28 12:50:46;;;;;;;;;;;16.40;53.50;;;;;;5055677;28;20332;-79
2021/11/28 12:53:23;;;;;;;;;;;16.50;53.90;;;;;;5056031;28;20354;-79
2021/11/28 12:56:09;;;;;;;;;;;16.80;52.40;;;;;;5055685;28;19916;-80
2021/11/28 12:58:35;;;;;;;;;;;17.10;52.50;;;;;;5053925;28;20027;-79
2021/11/28 13:01:00;;;;;;;;;;;16.60;52.50;;;;;;5055521;28;20000;-78
2021/11/28 13:03:26;;;;;;;;;;;16.20;54.50;;;;;;5055399;28;19909;-79
2021/11/28 13:05:52;;;;;;;;;;;16.40;54.10;;;;;;5054124;28;19909;-79
2021/11/28 13:08:20;;;;;;;;;;;15.80;53.70;;;;;;5055298;28;19947;-80
2021/11/28 13:10:47;;;;;;;;;;;15.30;55.20;;;;;;5055073;28;19929;-79
2021/11/28 13:13:24;;;;;;;;;;;15.50;55.90;;;;;;5055431;28;19916;-78
2021/11/28 13:15:51;;;;;;;;;;;14.90;56.00;;;;;;5055234;28;19909;-79
2021/11/28 13:18:18;;;;;;;;;;;14.90;57.20;;;;;;5055051;28;19913;-80
2021/11/28 13:20:44;;;;;;;;;;;15.20;56.40;;;;;;5055113;28;19908;-79
2021/11/28 13:23:10;;;;;;;;;;;15.60;54.50;;;;;;5055079;28;20257;-78
2021/11/28 13:25:44;;;;;;;;;;;15.00;54.70;;;;;;5054534;28;20127;-79
2021/11/28 13:28:16;;;;;;;;;;;14.90;56.00;;;;;;5053691;28;20431;-79
2021/11/28 13:30:43;;;;;;;;;;;15.80;54.70;;;;;;5053399;28;19909;-79
2021/11/28 13:33:10;;;;;;;;;;;16.40;54.20;;;;;;5055096;28;20315;-79
2021/11/28 13:35:36;;;;;;;;;;;15.70;54.60;;;;;;5054819;28;20288;-79
2021/11/28 13:38:11;;;;;;;;;;;16.50;56.00;;;;;;5054840;28;19916;-79
2021/11/28 13:40:36;;;;;;;;;;;17.10;53.20;;;;;;5053341;28;19952;-79
2021/11/28 13:43:02;;;;;;;;;;;15.90;53.80;;;;;;5054731;28;19951;-79
2021/11/28 13:45:28;;;;;;;;;;;15.20;54.70;;;;;;5054606;28;19909;-78
2021/11/28 13:47:53;;;;;;;;;;;15.60;54.50;;;;;;5053330;28;19935;-79
2021/11/28 13:50:19;;;;;;;;;;;16.10;53.40;;;;;;5054579;28;19962;-79
2021/11/28 13:52:44;;;;;;;;;;;17.00;52.80;;;;;;5054918;28;19923;-79
2021/11/28 13:55:10;;;;;;;;;;;16.30;52.90;;;;;;5054431;28;20038;-79
2021/11/28 13:57:37;;;;;;;;;;;16.20;53.20;;;;;;5054569;28;19913;-79
2021/11/28 14:00:06;;;;;;;;;;;15.80;53.30;;;;;;5054376;28;19909;-80
2021/11/28 14:02:34;;;;;;;;;;;15.20;54.10;;;;;;5054362;28;19999;-78
2021/11/28 14:05:06;;;;;;;;;;;15.80;54.80;;;;;;5054284;28;20403;-79
2021/11/28 14:07:34;;;;;;;;;;;15.10;54.30;;;;;;5054457;28;19909;-79
2021/11/28 14:10:15;;;;;;;;;;;15.70;55.50;;;;;;5053744;28;19947;-79
2021/11/28 14:12:42;;;;;;;;;;;16.00;54.40;;;;;;5054146;28;19920;-79
2021/11/28 14:15:09;;;;;;;;;;;15.10;55.30;;;;;;5054182;28;19963;-79
2021/11/28 14:17:35;;;;;;;;;;;16.00;55.40;;;;;;5053981;28;19909;-79
2021/11/28 14:20:12;;;;;;;;;;;15.40;55.00;;;;;;5052725;28;19909;-80
2021/11/28 14:22:39;;;;;;;;;;;14.90;55.60;;;;;;5053965;28;19909;-79
2021/11/28 14:25:15;;;;;;;;;;;15.20;56.10;;;;;;5054125;28;20369;-79
2021/11/28 14:27:41;;;;;;;;;;;14.80;56.30;;;;;;5053884;28;20411;-79
2021/11/28 14:30:07;;;;;;;;;;;14.30;57.10;;;;;;5053861;28;19913;-78
2021/11/28 14:32:32;;;;;;;;;;;13.40;57.80;;;;;;5053759;28;20396;-78